createdAt,value
2018-12-04T00:00:59.877Z,2.23
2018-12-04T00:03:28.461Z,2.60
2018-12-04T00:05:57.286Z,1.80
2018-12-04T00:08:25.813Z,2.00
2018-12-04T00:10:54.159Z,2.20
2018-12-04T00:13:22.555Z,2.00
2018-12-04T00:15:50.905Z,2.13
2018-12-04T00:18:19.214Z,1.87
2018-12-04T00:20:47.513Z,1.93
2018-12-04T00:23:16.043Z,1.80
2018-12-04T00:25:44.320Z,1.60
2018-12-04T00:28:12.641Z,1.50
2018-12-04T00:30:41.153Z,1.13
2018-12-04T00:33:09.509Z,1.60
2018-12-04T00:35:37.948Z,1.53
2018-12-04T00:38:06.379Z,1.30
2018-12-04T00:40:34.849Z,1.70
2018-12-04T00:43:03.368Z,1.90
2018-12-04T00:45:31.739Z,1.63
2018-12-04T00:48:00.109Z,1.60
2018-12-04T00:50:28.463Z,1.40
2018-12-04T00:52:56.888Z,1.80
2018-12-04T00:55:25.273Z,1.70
2018-12-04T00:57:53.763Z,1.60
2018-12-04T01:00:22.353Z,1.50
2018-12-04T01:02:50.702Z,1.67
2018-12-04T01:05:19.159Z,1.70
2018-12-04T01:07:47.700Z,1.23
2018-12-04T01:10:16.156Z,1.67
2018-12-04T01:12:44.514Z,1.73
2018-12-04T01:15:13.015Z,1.73
2018-12-04T01:17:41.699Z,1.60
2018-12-04T01:20:10.141Z,2.20
2018-12-04T01:22:38.522Z,1.57
2018-12-04T01:25:06.955Z,2.17
2018-12-04T01:27:35.422Z,2.23
2018-12-04T01:30:04.415Z,2.10
2018-12-04T01:32:33.174Z,1.80
2018-12-04T01:35:01.529Z,2.07
2018-12-04T01:37:29.889Z,2.20
2018-12-04T01:39:58.262Z,2.17
2018-12-04T01:42:26.637Z,1.73
2018-12-04T01:44:55.008Z,1.63
2018-12-04T01:47:23.859Z,2.10
2018-12-04T01:49:52.232Z,1.73
2018-12-04T01:52:20.621Z,2.17
2018-12-04T01:54:49.012Z,2.33
2018-12-04T01:57:17.302Z,2.37
2018-12-04T01:59:45.942Z,2.70
2018-12-04T02:02:14.328Z,3.20
2018-12-04T02:04:42.643Z,3.03
2018-12-04T02:07:10.903Z,2.70
2018-12-04T02:09:39.273Z,3.40
2018-12-04T02:12:07.678Z,3.33
2018-12-04T02:14:36.253Z,3.50
2018-12-04T02:17:04.777Z,2.73
2018-12-04T02:19:33.233Z,2.67
2018-12-04T02:22:01.569Z,2.23
2018-12-04T02:24:30.219Z,2.27
2018-12-04T02:26:58.628Z,2.57
2018-12-04T02:29:27.061Z,2.47
2018-12-04T02:31:55.401Z,2.40
2018-12-04T02:34:23.788Z,2.37
2018-12-04T02:36:52.223Z,2.13
2018-12-04T02:39:20.712Z,2.90
2018-12-04T02:41:49.133Z,2.80
2018-12-04T02:44:17.472Z,2.63
2018-12-04T02:46:45.783Z,2.87
2018-12-04T02:49:14.063Z,3.10
2018-12-04T02:51:42.528Z,3.30
2018-12-04T02:54:11.103Z,2.80
2018-12-04T02:56:39.477Z,2.47
2018-12-04T02:59:07.915Z,3.67
2018-12-04T03:01:36.282Z,2.33
2018-12-04T03:04:04.744Z,3.00
2018-12-04T03:06:33.223Z,2.87
2018-12-04T03:09:01.582Z,3.07
2018-12-04T03:11:30.030Z,2.80
2018-12-04T03:13:58.334Z,3.47
2018-12-04T03:16:26.674Z,3.40
2018-12-04T03:18:54.997Z,2.90
2018-12-04T03:21:23.291Z,2.73
2018-12-04T03:23:51.637Z,3.23
2018-12-04T03:26:20.266Z,2.77
2018-12-04T03:28:48.752Z,2.63
2018-12-04T03:31:17.102Z,3.30
2018-12-04T03:33:45.486Z,3.07
2018-12-04T03:36:14.151Z,3.53
2018-12-04T03:38:42.422Z,2.33
2018-12-04T03:41:10.890Z,2.77
2018-12-04T03:43:39.274Z,2.57
2018-12-04T03:46:07.591Z,2.83
2018-12-04T03:48:35.940Z,2.47
2018-12-04T03:51:04.348Z,2.73
2018-12-04T03:53:32.862Z,2.87
2018-12-04T03:56:01.271Z,2.57
2018-12-04T03:58:29.707Z,2.90
2018-12-04T04:00:58.077Z,3.30
2018-12-04T04:03:26.363Z,3.37
2018-12-04T04:05:54.735Z,3.00
2018-12-04T04:08:23.001Z,2.90
2018-12-04T04:10:51.553Z,3.07
2018-12-04T04:13:20.031Z,2.73
2018-12-04T04:15:48.519Z,3.43
2018-12-04T04:18:16.981Z,3.13
2018-12-04T04:20:45.356Z,3.43
2018-12-04T04:23:13.633Z,2.87
2018-12-04T04:25:42.029Z,3.37
2018-12-04T04:28:10.301Z,3.13
2018-12-04T04:30:38.611Z,2.97
2018-12-04T04:33:07.080Z,3.20
2018-12-04T04:35:35.413Z,2.83
2018-12-04T04:38:03.760Z,3.03
2018-12-04T04:40:32.149Z,3.10
2018-12-04T04:43:00.533Z,3.13
2018-12-04T04:45:28.803Z,2.57
2018-12-04T04:47:57.278Z,2.60
2018-12-04T04:50:25.779Z,3.20
2018-12-04T04:52:54.183Z,3.23
2018-12-04T04:55:22.482Z,2.57
2018-12-04T04:57:50.816Z,2.83
2018-12-04T05:00:19.099Z,3.03
2018-12-04T05:02:47.503Z,3.80
2018-12-04T05:05:15.983Z,2.70
2018-12-04T05:07:44.505Z,3.37
2018-12-04T05:10:53.158Z,3.23
2018-12-04T05:13:21.478Z,2.67
2018-12-04T05:15:49.842Z,2.73
2018-12-04T05:18:19.755Z,3.50
2018-12-04T05:20:48.287Z,3.47
2018-12-04T05:23:16.602Z,2.60
2018-12-04T05:25:44.922Z,2.83
2018-12-04T05:28:13.234Z,3.03
2018-12-04T05:30:41.804Z,2.57
2018-12-04T05:33:10.127Z,2.93
2018-12-04T05:35:38.439Z,3.10
2018-12-04T05:38:07.078Z,2.60
2018-12-04T05:40:35.491Z,2.60
2018-12-04T05:43:03.773Z,2.37
2018-12-04T05:45:32.119Z,3.03
2018-12-04T05:48:00.417Z,2.70
2018-12-04T05:50:28.748Z,3.13
2018-12-04T05:53:14.573Z,2.27
2018-12-04T05:55:43.068Z,2.53
2018-12-04T05:58:11.663Z,3.07
2018-12-04T06:00:41.043Z,2.53
2018-12-04T06:03:10.446Z,2.37
2018-12-04T06:05:39.306Z,3.40
2018-12-04T06:08:07.590Z,3.10
2018-12-04T06:10:35.984Z,3.10
2018-12-04T06:13:04.262Z,6.10
2018-12-04T06:15:33.096Z,2.13
2018-12-04T06:18:01.497Z,2.90
2018-12-04T06:20:29.936Z,2.27
2018-12-04T06:22:58.256Z,2.87
2018-12-04T06:25:26.576Z,3.67
2018-12-04T06:27:54.938Z,3.93
2018-12-04T06:30:23.252Z,3.10
2018-12-04T06:32:51.701Z,3.27
2018-12-04T06:35:20.406Z,3.33
2018-12-04T06:37:48.875Z,3.00
2018-12-04T06:40:17.739Z,2.83
2018-12-04T06:42:46.146Z,3.50
2018-12-04T06:45:14.450Z,2.33
2018-12-04T06:47:42.764Z,2.73
2018-12-04T06:50:11.690Z,2.87
2018-12-04T06:52:40.055Z,2.30
2018-12-04T06:55:09.137Z,2.50
2018-12-04T06:57:37.521Z,3.03
2018-12-04T07:00:06.665Z,2.70
2018-12-04T07:02:34.967Z,2.47
2018-12-04T07:05:03.450Z,3.00
2018-12-04T07:07:31.975Z,2.93
2018-12-04T07:10:00.271Z,3.10
2018-12-04T07:12:28.585Z,2.53
2018-12-04T07:14:56.945Z,2.13
2018-12-04T07:17:25.257Z,1.97
2018-12-04T07:19:53.565Z,2.83
2018-12-04T07:22:21.901Z,2.33
2018-12-04T07:24:50.362Z,2.13
2018-12-04T07:27:19.365Z,2.70
2018-12-04T07:29:47.676Z,2.70
2018-12-04T07:32:15.966Z,2.40
2018-12-04T07:34:44.380Z,2.07
2018-12-04T07:37:12.734Z,2.67
2018-12-04T07:39:41.110Z,2.97
2018-12-04T07:42:09.467Z,2.40
2018-12-04T07:44:37.890Z,2.40
2018-12-04T07:47:06.401Z,2.73
2018-12-04T07:49:34.730Z,2.27
2018-12-04T07:52:03.766Z,2.83
2018-12-04T07:54:32.106Z,2.73
2018-12-04T07:57:00.397Z,2.70
2018-12-04T07:59:28.792Z,3.00
2018-12-04T08:01:57.097Z,3.63
2018-12-04T08:04:25.457Z,3.73
2018-12-04T08:06:54.004Z,3.60
2018-12-04T08:09:22.400Z,2.77
2018-12-04T08:11:50.729Z,3.07
2018-12-04T08:14:19.067Z,3.00
2018-12-04T08:16:47.361Z,2.93
2018-12-04T08:19:15.645Z,3.17
2018-12-04T08:21:44.777Z,2.80
2018-12-04T08:24:13.088Z,2.77
2018-12-04T08:26:41.526Z,2.07
2018-12-04T08:29:09.868Z,2.43
2018-12-04T08:31:38.538Z,2.73
2018-12-04T08:34:06.834Z,2.80
2018-12-04T08:36:35.168Z,2.27
2018-12-04T08:39:04.091Z,3.20
2018-12-04T08:41:32.415Z,2.70
2018-12-04T08:44:00.836Z,2.90
2018-12-04T08:46:29.169Z,3.00
2018-12-04T08:48:57.949Z,2.27
2018-12-04T08:54:07.275Z,2.50
2018-12-04T08:56:35.608Z,2.40
2018-12-04T08:59:04.149Z,2.30
2018-12-04T09:01:32.586Z,2.90
2018-12-04T09:04:00.967Z,2.17
2018-12-04T09:06:31.316Z,2.27
2018-12-04T09:08:59.834Z,2.77
2018-12-04T09:11:28.146Z,2.17
2018-12-04T09:13:56.472Z,2.40
2018-12-04T09:16:24.787Z,2.40
2018-12-04T09:18:53.144Z,2.57
2018-12-04T09:21:21.820Z,2.70
2018-12-04T09:23:50.394Z,2.07
2018-12-04T09:26:19.074Z,2.47
2018-12-04T09:28:47.476Z,1.90
2018-12-04T09:31:15.887Z,2.03
2018-12-04T09:33:44.242Z,2.10
2018-12-04T09:36:12.775Z,2.53
2018-12-04T09:38:41.064Z,2.60
2018-12-04T09:41:09.396Z,3.33
2018-12-04T09:43:37.735Z,2.60
2018-12-04T09:46:06.065Z,2.43
2018-12-04T09:48:34.483Z,2.57
2018-12-04T09:51:02.799Z,2.70
2018-12-04T09:53:31.113Z,3.70
2018-12-04T09:55:59.438Z,2.10
2018-12-04T09:58:27.778Z,3.60
2018-12-04T10:00:56.458Z,2.50
2018-12-04T10:03:24.990Z,2.37
2018-12-04T10:05:53.358Z,2.53
2018-12-04T10:08:21.769Z,2.87
2018-12-04T10:10:50.097Z,2.70
2018-12-04T10:13:18.428Z,2.73
2018-12-04T10:15:46.985Z,3.10
2018-12-04T10:18:15.416Z,2.30
2018-12-04T10:20:43.688Z,2.23
2018-12-04T10:23:12.000Z,2.57
2018-12-04T10:25:42.349Z,2.10
2018-12-04T10:28:10.671Z,3.17
2018-12-04T10:30:39.165Z,2.20
2018-12-04T10:33:07.541Z,2.10
2018-12-04T10:35:36.030Z,2.70
2018-12-04T10:38:04.543Z,2.47
2018-12-04T10:40:33.039Z,2.53
2018-12-04T10:43:01.403Z,2.77
2018-12-04T10:45:29.847Z,2.40
2018-12-04T10:47:58.213Z,2.60
2018-12-04T10:50:26.668Z,2.43
2018-12-04T10:52:55.079Z,2.50
2018-12-04T10:55:24.297Z,2.43
2018-12-04T10:57:52.594Z,1.93
2018-12-04T11:00:26.545Z,2.23
2018-12-04T11:02:56.978Z,1.73
2018-12-04T11:05:25.272Z,2.20
2018-12-04T11:07:53.644Z,1.80
2018-12-04T11:10:22.048Z,2.30
2018-12-04T11:12:50.464Z,2.87
2018-12-04T11:15:18.878Z,2.27
2018-12-04T11:17:47.245Z,2.93
2018-12-04T11:20:15.557Z,2.30
2018-12-04T11:22:43.832Z,2.73
2018-12-04T11:25:12.218Z,2.30
2018-12-04T11:27:40.659Z,2.20
2018-12-04T11:30:10.198Z,4.43
2018-12-04T11:32:38.694Z,2.27
2018-12-04T11:35:07.132Z,3.63
2018-12-04T11:37:36.198Z,2.07
2018-12-04T11:40:05.490Z,2.37
2018-12-04T11:42:33.826Z,2.40
2018-12-04T11:45:02.139Z,2.37
2018-12-04T11:47:30.470Z,2.43
2018-12-04T11:49:59.022Z,2.30
2018-12-04T11:52:27.539Z,2.53
2018-12-04T11:54:55.828Z,2.10
2018-12-04T11:57:24.269Z,2.50
2018-12-04T11:59:52.720Z,2.73
2018-12-04T12:02:21.396Z,2.13
2018-12-04T12:04:50.817Z,2.43
2018-12-04T12:07:20.624Z,2.80
2018-12-04T12:09:49.376Z,1.90
2018-12-04T12:12:18.364Z,2.50
2018-12-04T12:14:46.672Z,2.47
2018-12-04T12:17:15.083Z,2.40
2018-12-04T12:19:44.043Z,2.60
2018-12-04T12:22:12.622Z,2.43
2018-12-04T12:24:41.072Z,2.00
2018-12-04T12:27:09.528Z,2.27
2018-12-04T12:29:38.096Z,2.30
2018-12-04T12:32:06.494Z,2.30
2018-12-04T12:34:35.045Z,2.43
2018-12-04T12:37:03.393Z,2.43
2018-12-04T12:39:31.834Z,2.10
2018-12-04T12:42:00.232Z,2.10
2018-12-04T12:44:28.583Z,2.87
2018-12-04T12:46:56.899Z,1.93
2018-12-04T12:49:26.219Z,2.93
2018-12-04T12:51:54.509Z,2.40
2018-12-04T12:54:22.887Z,2.80
2018-12-04T12:56:51.294Z,3.70
2018-12-04T12:59:19.693Z,2.10
2018-12-04T13:01:48.013Z,2.30
2018-12-04T13:04:17.538Z,2.90
2018-12-04T13:06:45.809Z,2.43
2018-12-04T13:09:14.170Z,1.80
2018-12-04T13:11:42.472Z,1.80
2018-12-04T13:14:10.778Z,1.90
2018-12-04T13:16:39.084Z,2.00
2018-12-04T13:19:07.407Z,2.40
2018-12-04T13:21:35.740Z,2.13
2018-12-04T13:24:04.043Z,2.07
2018-12-04T13:26:32.375Z,2.23
2018-12-04T13:29:00.698Z,1.93
2018-12-04T13:31:29.228Z,2.10
2018-12-04T13:33:57.544Z,2.30
2018-12-04T13:36:26.014Z,2.40
2018-12-04T13:38:54.412Z,1.93
2018-12-04T13:41:22.822Z,2.23
2018-12-04T13:43:51.301Z,2.43
2018-12-04T13:46:19.922Z,1.83
2018-12-04T13:48:48.176Z,2.07
2018-12-04T13:51:16.494Z,2.60
2018-12-04T13:53:44.919Z,1.83
2018-12-04T13:56:13.331Z,2.23
2018-12-04T13:58:41.898Z,2.50
2018-12-04T14:01:10.384Z,2.27
2018-12-04T14:03:38.701Z,2.03
2018-12-04T14:06:07.256Z,2.43
2018-12-04T14:08:35.570Z,2.60
2018-12-04T14:11:04.172Z,2.20
2018-12-04T14:13:32.621Z,2.60
2018-12-04T14:16:01.193Z,2.57
2018-12-04T14:18:29.577Z,2.37
2018-12-04T14:20:58.019Z,2.40
2018-12-04T14:23:27.125Z,3.00
2018-12-04T14:25:55.434Z,2.20
2018-12-04T14:28:24.380Z,2.63
2018-12-04T14:30:52.716Z,2.83
2018-12-04T14:33:21.068Z,2.60
2018-12-04T14:35:49.581Z,2.50
2018-12-04T14:38:18.087Z,2.57
2018-12-04T14:40:46.643Z,2.33
2018-12-04T14:43:15.191Z,2.07
2018-12-04T14:45:43.634Z,2.77
2018-12-04T14:48:11.952Z,1.90
2018-12-04T14:50:40.568Z,2.43
2018-12-04T14:53:08.956Z,3.50
2018-12-04T14:55:37.294Z,2.93
2018-12-04T14:58:05.732Z,2.83
2018-12-04T15:00:34.246Z,2.63
2018-12-04T15:03:02.715Z,2.93
2018-12-04T15:05:31.360Z,2.10
2018-12-04T15:07:59.761Z,2.20
2018-12-04T15:10:28.086Z,2.60
2018-12-04T15:12:56.494Z,2.40
2018-12-04T15:15:25.004Z,2.93
2018-12-04T15:17:53.455Z,2.23
2018-12-04T15:20:21.918Z,2.57
2018-12-04T15:22:50.381Z,2.50
2018-12-04T15:25:18.681Z,2.57
2018-12-04T15:27:47.552Z,2.67
2018-12-04T15:30:16.012Z,2.40
2018-12-04T15:32:44.399Z,2.40
2018-12-04T15:35:12.823Z,2.60
2018-12-04T15:37:41.268Z,2.30
2018-12-04T15:40:09.769Z,2.20
2018-12-04T15:42:38.335Z,2.67
2018-12-04T15:45:06.838Z,2.63
2018-12-04T15:47:35.413Z,3.13
2018-12-04T15:50:05.465Z,2.80
2018-12-04T15:52:33.957Z,2.83
2018-12-04T15:55:02.381Z,2.37
2018-12-04T15:57:31.059Z,5.90
2018-12-04T15:59:59.358Z,6.07
2018-12-04T16:02:27.671Z,3.80
2018-12-04T16:04:55.996Z,3.27
2018-12-04T16:07:24.417Z,3.13
2018-12-04T16:09:52.823Z,3.17
2018-12-04T16:12:21.377Z,2.90
2018-12-04T16:14:49.761Z,3.60
2018-12-04T16:17:18.254Z,3.40
2018-12-04T16:19:46.605Z,2.80
2018-12-04T16:22:14.936Z,3.20
2018-12-04T16:24:43.362Z,2.40
2018-12-04T16:27:11.820Z,3.00
2018-12-04T16:29:40.229Z,3.03
2018-12-04T16:32:08.658Z,3.20
2018-12-04T16:34:37.011Z,3.53
2018-12-04T16:37:05.390Z,2.80
2018-12-04T16:39:33.999Z,3.10
2018-12-04T16:42:02.331Z,3.30
2018-12-04T16:44:30.649Z,3.27
2018-12-04T16:46:58.968Z,3.53
2018-12-04T16:49:27.272Z,4.07
2018-12-04T16:51:55.628Z,4.10
2018-12-04T16:54:23.947Z,3.70
2018-12-04T16:56:52.306Z,4.00
2018-12-04T16:59:20.717Z,11.93
2018-12-04T17:01:49.537Z,4.00
2018-12-04T17:04:17.866Z,13.77
2018-12-04T17:06:46.394Z,5.83
2018-12-04T17:09:15.007Z,7.43
2018-12-04T17:11:44.430Z,8.37
2018-12-04T17:14:13.555Z,7.40
2018-12-04T17:16:41.973Z,5.70
2018-12-04T17:19:10.891Z,6.00
2018-12-04T17:21:39.218Z,5.10
2018-12-04T17:24:07.569Z,6.27
2018-12-04T17:26:36.267Z,6.80
2018-12-04T17:29:04.578Z,6.13
2018-12-04T17:31:32.894Z,10.27
2018-12-04T17:34:01.194Z,10.93
2018-12-04T17:36:29.597Z,8.90
2018-12-04T17:38:57.877Z,9.90
2018-12-04T17:41:26.424Z,8.77
2018-12-04T17:43:55.501Z,8.43
2018-12-04T17:46:23.843Z,9.33
2018-12-04T17:48:52.312Z,8.23
2018-12-04T17:51:20.630Z,8.43
2018-12-04T17:53:48.926Z,6.70
2018-12-04T17:56:17.405Z,8.20
2018-12-04T17:58:45.766Z,7.00
2018-12-04T18:01:14.270Z,6.97
2018-12-04T18:03:45.937Z,7.17
2018-12-04T18:06:14.418Z,6.37
2018-12-04T18:08:42.769Z,5.57
2018-12-04T18:11:11.153Z,7.20
2018-12-04T18:13:39.915Z,6.67
2018-12-04T18:16:08.223Z,6.50
2018-12-04T18:18:36.570Z,5.50
2018-12-04T18:21:04.963Z,4.60
2018-12-04T18:23:33.276Z,5.43
2018-12-04T18:26:01.744Z,4.60
2018-12-04T18:28:30.210Z,5.00
2018-12-04T18:30:58.578Z,5.30
2018-12-04T18:33:27.531Z,5.90
2018-12-04T18:35:55.897Z,5.80
2018-12-04T18:38:24.287Z,5.37
2018-12-04T18:40:52.748Z,5.63
2018-12-04T18:43:21.093Z,5.33
2018-12-04T18:45:49.431Z,5.80
2018-12-04T18:48:17.907Z,7.20
2018-12-04T18:50:46.743Z,7.43
2018-12-04T18:53:15.019Z,6.63
2018-12-04T18:55:43.845Z,5.40
2018-12-04T18:58:12.187Z,6.67
2018-12-04T19:00:40.756Z,6.00
2018-12-04T19:03:09.113Z,6.17
2018-12-04T19:05:37.457Z,6.30
2018-12-04T19:08:05.774Z,6.27
2018-12-04T19:10:34.251Z,6.07
2018-12-04T19:13:02.771Z,6.20
2018-12-04T19:15:31.222Z,6.10
2018-12-04T19:17:59.737Z,7.50
2018-12-04T19:20:28.896Z,7.93
2018-12-04T19:22:57.230Z,9.07
2018-12-04T19:25:25.567Z,8.53
2018-12-04T19:27:54.365Z,9.80
2018-12-04T19:30:22.687Z,8.57
2018-12-04T19:32:51.026Z,9.67
2018-12-04T19:35:19.602Z,8.20
2018-12-04T19:37:48.258Z,11.50
2018-12-04T19:40:16.573Z,8.37
2018-12-04T19:42:44.989Z,8.60
2018-12-04T19:45:13.473Z,10.93
2018-12-04T19:47:41.793Z,8.77
2018-12-04T19:50:10.142Z,8.50
2018-12-04T19:52:38.625Z,7.47
2018-12-04T19:55:07.050Z,6.67
2018-12-04T19:57:35.390Z,6.83
2018-12-04T20:00:05.182Z,7.60
2018-12-04T20:02:33.613Z,11.40
2018-12-04T20:05:01.943Z,10.43
2018-12-04T20:07:30.260Z,12.27
2018-12-04T20:09:58.604Z,14.73
2018-12-04T20:12:27.033Z,13.77
2018-12-04T20:14:55.407Z,10.63
2018-12-04T20:17:23.812Z,9.67
2018-12-04T20:19:52.446Z,9.17
2018-12-04T20:22:20.831Z,7.27
2018-12-04T20:24:49.327Z,8.00
2018-12-04T20:27:17.689Z,7.50
2018-12-04T20:29:46.054Z,6.60
2018-12-04T20:32:14.450Z,7.63
2018-12-04T20:34:42.784Z,7.40
2018-12-04T20:37:14.917Z,9.33
2018-12-04T20:39:43.321Z,8.40
2018-12-04T20:42:11.649Z,6.70
2018-12-04T20:44:40.232Z,7.83
2018-12-04T20:47:08.572Z,8.30
2018-12-04T20:49:37.045Z,6.60
2018-12-04T20:52:05.557Z,6.17
2018-12-04T20:54:33.971Z,6.00
2018-12-04T20:57:03.102Z,6.33
2018-12-04T20:59:31.424Z,6.43
2018-12-04T21:01:59.876Z,6.23
2018-12-04T21:04:28.200Z,5.70
2018-12-04T21:06:56.499Z,6.73
2018-12-04T21:09:25.017Z,6.50
2018-12-04T21:11:53.559Z,5.40
2018-12-04T21:14:21.884Z,6.27
2018-12-04T21:16:50.226Z,6.63
2018-12-04T21:19:18.546Z,6.83
2018-12-04T21:21:46.904Z,7.47
2018-12-04T21:24:15.210Z,6.57
2018-12-04T21:26:43.550Z,7.07
2018-12-04T21:32:24.131Z,6.17
2018-12-04T21:34:57.962Z,7.20
2018-12-04T21:37:31.915Z,6.90
2018-12-04T21:40:05.893Z,6.97
2018-12-04T21:42:39.814Z,7.50
2018-12-04T21:45:14.004Z,7.03
2018-12-04T21:47:47.862Z,7.13
2018-12-04T21:50:16.184Z,7.47
2018-12-04T21:52:44.518Z,7.10
2018-12-04T21:55:12.879Z,6.63
2018-12-04T21:57:41.322Z,7.67
2018-12-04T22:00:10.259Z,8.10
2018-12-04T22:02:38.556Z,8.80
2018-12-04T22:05:06.990Z,7.93
2018-12-04T22:07:35.297Z,8.30
2018-12-04T22:10:06.371Z,7.77
2018-12-04T22:12:34.715Z,8.63
2018-12-04T22:15:03.225Z,8.60
2018-12-04T22:17:31.551Z,8.13
2018-12-04T22:20:00.107Z,7.53
2018-12-04T22:22:28.426Z,7.77
2018-12-04T22:24:56.854Z,8.53
2018-12-04T22:27:25.185Z,8.63
2018-12-04T22:29:53.695Z,8.70
2018-12-04T22:32:21.985Z,8.70
2018-12-04T22:34:50.425Z,8.63
2018-12-04T22:37:19.189Z,8.73
2018-12-04T22:39:47.555Z,9.53
2018-12-04T22:42:16.345Z,8.83
2018-12-04T22:44:44.737Z,8.30
2018-12-04T22:47:13.156Z,9.27
2018-12-04T22:49:41.690Z,8.67
2018-12-04T22:52:10.004Z,8.73
2018-12-04T22:54:38.353Z,8.60
2018-12-04T22:57:06.656Z,7.83
2018-12-04T22:59:34.975Z,8.97
2018-12-04T23:02:03.465Z,7.67
2018-12-04T23:04:31.777Z,7.80
2018-12-04T23:07:01.387Z,8.20
2018-12-04T23:09:29.755Z,7.97
2018-12-04T23:11:58.070Z,8.30
2018-12-04T23:14:26.499Z,8.27
2018-12-04T23:16:56.614Z,9.60
2018-12-04T23:19:25.028Z,8.53
2018-12-04T23:21:53.342Z,8.30
2018-12-04T23:24:21.708Z,9.13
2018-12-04T23:26:50.263Z,7.80
2018-12-04T23:29:18.598Z,8.40
2018-12-04T23:31:46.873Z,9.07
2018-12-04T23:34:15.194Z,8.37
2018-12-04T23:36:43.530Z,7.73
2018-12-04T23:39:11.863Z,8.50
2018-12-04T23:41:40.212Z,8.20
2018-12-04T23:44:08.664Z,8.27
2018-12-04T23:46:37.107Z,8.33
2018-12-04T23:49:05.517Z,9.50
2018-12-04T23:51:33.858Z,8.47
2018-12-04T23:54:02.198Z,8.70
2018-12-04T23:56:30.490Z,8.20
2018-12-04T23:58:58.794Z,8.77
